Flight Track Log - Related Links

Times and Time Zones

All times are in EDT time to prevent confusion due to time zone crossing. See the AWE703 flight status page for this flight to view local times or setup timezone preferences in your user account.


Time Position Orientation Groundspeed Altitude Reporting Facility
EDT Latitude Longitude Course Direction KTS MPH feet Rate Location/Type
Thu 07:25:07 AM 50.0310 8.5340 249° West 171 197 1,300  Level FlightAware ADS-B
Thu 07:25:32 AM 50.0260 8.5070 254° West 173 199 2,300 2,073 Climbing FlightAware ADS-B
Thu 07:26:02 AM 50.0290 8.4690 277° West 183 211 3,200 1,855 Climbing FlightAware ADS-B
Thu 07:26:27 AM 50.0280 8.4310 268° West 197 227 4,000 1,440 Climbing FlightAware ADS-B
Thu 07:26:52 AM 50.0230 8.3950 258° West 229 264 4,400 1,500 Climbing FlightAware ADS-B
Thu 07:27:07 AM 50.0200 8.3690 260° West 234 269 5,000 1,733 Climbing FlightAware ADS-B
Thu 07:27:37 AM 50.0160 8.3350 260° West 244 281 5,700 2,320 Climbing FlightAware ADS-B
Thu 07:28:22 AM 50.0240 8.2390 277° West 267 307 7,900 2,914 Climbing FlightAware ADS-B
Thu 07:28:47 AM 50.0370 8.1940 294° West 273 314 9,100 2,400 Climbing FlightAware ADS-B
Thu 07:29:32 AM 50.0650 8.1150 299° West 295 339 10,700 1,650 Climbing FlightAware ADS-B
Thu 07:30:07 AM 50.1050 8.0630 320° Northwest 348 400 11,300 1,412 Climbing FlightAware ADS-B
Thu 07:30:57 AM 50.1750 7.9860 325° Northwest 388 447 12,700 2,200 Climbing FlightAware ADS-B
Thu 07:31:37 AM 50.2350 7.9210 325° Northwest 397 457 14,600 2,700 Climbing FlightAware ADS-B
Thu 07:32:17 AM 50.2960 7.8540 325° Northwest 408 470 16,300 2,471 Climbing FlightAware ADS-B
Thu 07:33:02 AM 50.3670 7.7770 325° Northwest 412 474 18,100 2,329 Climbing FlightAware ADS-B
Thu 07:33:42 AM 50.4260 7.7010 321° Northwest 415 478 19,600 2,259 Climbing FlightAware ADS-B
Thu 07:34:27 AM 50.4860 7.5990 313° West 428 493 21,300 2,118 Climbing FlightAware ADS-B
Thu 07:35:07 AM 50.5370 7.5110 312° West 435 501 22,600 2,047 Climbing FlightAware ADS-B
Thu 07:35:52 AM 50.6020 7.4000 313° West 437 503 24,200 2,400 Climbing FlightAware ADS-B
Thu 07:36:32 AM 50.6560 7.3080 313° West 433 498 26,000 2,400 Climbing FlightAware ADS-B
Thu 07:37:12 AM 50.7110 7.2130 312° West 432 497 27,400 3,106 Climbing FlightAware ADS-B
Thu 07:37:57 AM 50.7670 7.1170 313° West 390 449 30,400 2,824 Climbing FlightAware ADS-B
Thu 07:38:37 AM 50.8150 7.0320 312° West 386 444 31,400 1,575 Climbing FlightAware ADS-B
Thu 07:39:17 AM 50.8640 6.9460 312° West 389 448 32,500 1,341 Climbing FlightAware ADS-B
Thu 07:40:02 AM 50.9190 6.8510 313° West 386 444 33,300 776 Climbing FlightAware ADS-B
Thu 07:40:42 AM 50.9680 6.7650 312° West 407 468 33,600 525 Climbing FlightAware ADS-B
Thu 07:41:22 AM 51.0190 6.6750 312° West 412 474 34,000 282 Climbing FlightAware ADS-B
Thu 07:42:07 AM 51.0780 6.5710 312° West 419 482 34,000  Level FlightAware ADS-B
Thu 07:42:47 AM 51.1260 6.4860 312° West 422 486 34,000  Level FlightAware ADS-B
Thu 07:43:32 AM 51.1880 6.3730 311° West 419 482 34,000  Level FlightAware ADS-B
Thu 07:44:12 AM 51.2400 6.2790 311° West 423 487 34,000  Level FlightAware ADS-B
Thu 07:44:47 AM 51.2860 6.1950 311° West 422 486 34,000  Level FlightAware ADS-B
Thu 07:45:37 AM 51.3460 6.0870 312° West 422 486 34,000  Level FlightAware ADS-B
Thu 07:46:17 AM 51.4030 5.9860 312° West 422 486 34,000  Level FlightAware ADS-B
Thu 07:47:02 AM 51.4580 5.8850 311° West 422 486 34,000  Level FlightAware ADS-B
Thu 07:47:42 AM 51.5100 5.7910 312° West 424 488 34,000  Level FlightAware ADS-B
Thu 07:48:22 AM 51.5620 5.6950 311° West 426 490 34,000  Level FlightAware ADS-B
Thu 07:49:02 AM 51.6130 5.6000 311° West 428 493 34,000  Level FlightAware ADS-B
Thu 07:49:47 AM 51.6740 5.4870 311° West 431 496 34,000 -1,200 Level FlightAware ADS-B
Thu 07:50:17 AM 51.7238 5.4002 311° West 468 539 32,500  Descending FlightAware UK
Thu 07:50:27 AM 51.7270 5.3890 311° West 434 499 34,000  Climbing FlightAware ADS-B
Thu 07:50:53 AM 51.7727 5.3142 311° West 470 541 32,500  Descending FlightAware UK
Thu 07:51:12 AM 51.7840 5.2830 311° West 436 502 34,000 1,525 Climbing FlightAware ADS-B
Thu 07:51:52 AM 51.8370 5.1840 311° West 439 505 34,000 -1,268 Level FlightAware ADS-B
Thu 07:52:23 AM 51.8905 5.0913 311° West 468 539 32,500  Descending FlightAware UK
Thu 07:52:37 AM 51.8970 5.0700 311° West 442 509 34,000  Climbing FlightAware ADS-B
Thu 07:52:53 AM 51.9313 5.0175 311° West 468 539 32,500  Descending FlightAware UK
Thu 07:53:17 AM 51.9510 4.9680 311° West 443 510 34,000 1,406 Climbing FlightAware ADS-B
Thu 07:53:57 AM 52.0050 4.8670 311° West 446 513 34,000 -1,500 Level FlightAware ADS-B
Thu 07:54:17 AM 52.0420 4.8039 311° West 470 541 32,500  Descending FlightAware UK
Thu 07:54:42 AM 52.0630 4.7570 311° West 448 516 34,000  Climbing FlightAware ADS-B
Thu 07:54:59 AM 52.0989 4.6973 311° West 474 545 32,500  Descending FlightAware UK
Thu 07:55:22 AM 52.1170 4.6530 311° West 450 518 34,000  Climbing FlightAware ADS-B
Thu 07:55:23 AM 52.1319 4.6364 311° West 472 543 32,500 -2,903 Descending FlightAware UK
Thu 07:55:53 AM 52.1714 4.5586 311° West 472 543 32,500 2,045 Level FlightAware UK
Thu 07:56:07 AM 52.1810 4.5310 311° West 451 519 34,000  Climbing FlightAware ADS-B
Thu 07:56:47 AM 52.2453 4.4201 311° West 474 545 32,500  Descending FlightAware UK
Thu 07:56:47 AM 52.2340 4.4280 311° West 452 520 34,000  Climbing FlightAware ADS-B
Thu 07:57:05 AM 52.2691 4.3731 311° West 474 545 32,500  Descending FlightAware UK
Thu 07:57:27 AM 52.2890 4.3230 311° West 453 521 34,000 1,343 Climbing FlightAware ADS-B
Thu 07:58:12 AM 52.3480 4.2070 310° West 453 521 34,000 -1,216 Level FlightAware ADS-B
Thu 07:58:41 AM 52.3991 4.1226 310° West 474 545 32,500  Descending FlightAware UK
Thu 07:58:52 AM 52.4030 4.1010 310° West 454 522 34,000 1,765 Climbing FlightAware ADS-B
Thu 07:59:32 AM 52.4550 3.9990 310° West 454 522 34,000  Level FlightAware ADS-B
Thu 08:00:27 AM 52.5310 3.8490 310° West 454 522 34,000  Level FlightAware ADS-B
Thu 08:01:07 AM 52.5840 3.7450 310° West 454 522 34,000 -1,607 Level FlightAware ADS-B
Thu 08:01:23 AM 52.6163 3.6954 310° West 470 541 32,500  Descending FlightAware UK
Thu 08:01:42 AM 52.6300 3.6520 310° West 453 521 34,000  Climbing FlightAware ADS-B
Thu 08:02:17 AM 52.6880 3.5521 310° West 474 545 32,500  Descending FlightAware UK
Thu 08:02:27 AM 52.6860 3.5400 310° West 454 522 34,000  Climbing FlightAware ADS-B
Thu 08:02:47 AM 52.7281 3.4725 310° West 470 541 32,500  Descending FlightAware UK
Thu 08:03:07 AM 52.7410 3.4280 310° West 450 518 34,000  Climbing FlightAware ADS-B
Thu 08:03:23 AM 52.7694 3.3715 310° West 472 543 32,500 -2,647 Descending FlightAware UK
Thu 08:03:41 AM 52.7856 3.3175 296° West 474 545 32,500 4,737 Level FlightAware UK
Thu 08:03:42 AM 52.7750 3.3270 296° West 443 510 34,000 1,957 Climbing FlightAware ADS-B
Thu 08:04:27 AM 52.8060 3.1790 289° West 436 502 34,000  Level FlightAware ADS-B
Thu 08:05:07 AM 52.8320 3.0550 289° West 436 502 34,000 -1,607 Level FlightAware ADS-B
Thu 08:05:23 AM 52.8511 2.9970 289° West 468 539 32,500 -2,250 Descending FlightAware UK
Thu 08:05:47 AM 52.8669 2.9213 289° West 468 539 32,500 3,750 Level FlightAware UK
Thu 08:05:47 AM 52.8560 2.9350 289° West 440 506 34,000  Climbing FlightAware ADS-B
Thu 08:06:11 AM 52.8824 2.8450 289° West 472 543 32,500  Descending FlightAware UK
Thu 08:06:27 AM 52.8840 2.7970 288° West 443 510 34,000  Climbing FlightAware ADS-B
Thu 08:06:29 AM 52.8935 2.7874 288° West 474 545 32,500  Descending FlightAware UK
Thu 08:07:12 AM 52.9100 2.6650 288° West 446 513 34,000 1,023 Climbing FlightAware ADS-B
Thu 08:07:57 AM 52.9400 2.5100 288° West 447 514 34,000 -1,385 Level FlightAware ADS-B
Thu 08:08:17 AM 52.9612 2.4380 288° West 480 552 32,500  Descending FlightAware UK
Thu 08:08:35 AM 52.9649 2.3772 288° West 448 516 34,000  Climbing FlightAware ADS-B
Thu 08:09:04 AM 52.9906 2.2817 288° West 476 548 32,500  Descending FlightAware UK
Thu 08:09:17 AM 52.9890 2.2490 288° West 447 514 34,000  Climbing FlightAware ADS-B
Thu 08:09:34 AM 53.0089 2.1838 288° West 478 550 32,500 -2,195 Descending FlightAware UK
Thu 08:09:58 AM 53.0237 2.1054 287° West 478 550 32,500 3,214 Level FlightAware UK
Thu 08:10:02 AM 53.0160 2.1060 287° West 446 513 34,000  Climbing FlightAware ADS-B
Thu 08:10:40 AM 53.0488 1.9696 287° West 480 552 32,500  Descending FlightAware UK
Thu 08:10:42 AM 53.0410 1.9720 287° West 445 512 34,000  Climbing FlightAware ADS-B
Thu 08:10:58 AM 53.0598 1.9105 287° West 480 552 32,500 -2,250 Descending FlightAware UK
Thu 08:11:22 AM 53.0743 1.8333 287° West 480 552 32,500 3,750 Level FlightAware UK
Thu 08:11:22 AM 53.0650 1.8440 287° West 443 510 34,000  Climbing FlightAware ADS-B
Thu 08:11:40 AM 53.0850 1.7749 287° West 480 552 32,500 -2,286 Descending FlightAware UK
Thu 08:12:04 AM 53.0992 1.6972 287° West 480 552 32,400 3,333 Descending FlightAware UK
Thu 08:12:07 AM 53.0930 1.6930 287° West 442 509 34,000  Climbing FlightAware ADS-B
Thu 08:12:28 AM 53.1135 1.6195 287° West 476 548 32,400  Descending FlightAware UK
Thu 08:12:54 AM 53.1220 1.5350 287° West 439 505 34,000 143 Climbing FlightAware ADS-B
Thu 08:13:10 AM 53.1381 1.4839 287° West 474 545 32,500  Descending FlightAware UK
Thu 08:13:28 AM 53.1419 1.4260 287° West 439 505 34,000 1,837 Climbing FlightAware ADS-B
Thu 08:13:59 AM 53.1597 1.3272 287° West 439 505 34,000 -1,667 Level FlightAware ADS-B
Thu 08:14:22 AM 53.1798 1.2526 287° West 472 543 32,500  Descending FlightAware UK
Thu 08:14:29 AM 53.1773 1.2287 287° West 440 506 34,000  Climbing FlightAware ADS-B
Thu 08:14:46 AM 53.1935 1.1749 287° West 474 545 32,500  Descending FlightAware UK
Thu 08:15:04 AM 53.1979 1.1134 287° West 440 506 34,000  Climbing FlightAware ADS-B
Thu 08:15:21 AM 53.2137 1.0594 287° West 472 543 32,500 -2,500 Descending FlightAware UK
Thu 08:15:40 AM 53.2241 1.0003 286° West 472 543 32,500 2,903 Level FlightAware UK
Thu 08:15:52 AM 53.2253 0.9577 286° West 441 507 34,000  Climbing FlightAware ADS-B
Thu 08:16:10 AM 53.2412 0.9028 286° West 470 541 32,500  Descending FlightAware UK
Thu 08:16:33 AM 53.2489 0.8248 286° West 442 509 34,000  Climbing FlightAware ADS-B
Thu 08:16:51 AM 53.2650 0.7665 286° West 474 545 32,500 -2,432 Descending FlightAware UK
Thu 08:17:10 AM 53.2753 0.7067 286° West 476 548 32,500 2,308 Level FlightAware UK
Thu 08:17:30 AM 53.2814 0.6374 286° West 442 509 34,000  Climbing FlightAware ADS-B
Thu 08:17:45 AM 53.2956 0.5889 286° West 480 552 32,500  Descending FlightAware UK
Thu 08:18:12 AM 53.3030 0.5120 286° West 444 511 34,000 2,647 Climbing FlightAware ADS-B
Thu 08:18:19 AM 53.3091 0.4775 286° West 444 511 34,000  Level FlightAware ADS-B
Thu 08:18:49 AM 53.3261 0.3783 286° West 444 511 34,000  Level FlightAware ADS-B
Thu 08:19:19 AM 53.3431 0.2789 286° West 445 512 34,000  Level FlightAware ADS-B
Thu 08:19:50 AM 53.3601 0.1780 286° West 445 512 34,000 -1,800 Level FlightAware ADS-B
Thu 08:20:09 AM 53.3759 0.1153 286° West 476 548 32,500  Descending FlightAware UK
Thu 08:20:20 AM 53.3769 0.0781 286° West 445 512 34,000  Climbing FlightAware ADS-B
Thu 08:20:39 AM 53.3923 0.0158 286° West 476 548 32,500  Descending FlightAware UK
Thu 08:20:53 AM 53.3951 -0.0299 286° West 447 514 34,000  Climbing FlightAware ADS-B
Thu 08:21:09 AM 53.4088 -0.0831 286° West 478 550 32,500  Descending FlightAware UK
Thu 08:21:23 AM 53.4117 -0.1293 286° West 445 512 34,000  Climbing FlightAware ADS-B
Thu 08:21:39 AM 53.4254 -0.1827 286° West 474 545 32,500  Descending FlightAware UK
Thu 08:21:54 AM 53.4289 -0.2335 286° West 445 512 34,000  Climbing FlightAware ADS-B
Thu 08:22:33 AM 53.4546 -0.3615 286° West 468 539 32,500  Descending FlightAware UK
Thu 08:22:45 AM 53.4567 -0.4022 286° West 447 514 34,000  Climbing FlightAware ADS-B
Thu 08:23:09 AM 53.4737 -0.4819 286° West 472 543 32,500  Descending FlightAware UK
Thu 08:23:40 AM 53.4864 -0.5859 286° West 447 514 34,000  Climbing FlightAware ADS-B
Thu 08:23:56 AM 53.4995 -0.6417 286° West 472 543 32,500  Descending FlightAware UK
Thu 08:24:13 AM 53.5044 -0.6970 286° West 449 517 34,000  Climbing FlightAware ADS-B
Thu 08:24:32 AM 53.5189 -0.7626 286° West 472 543 32,500  Descending FlightAware UK
Thu 08:24:49 AM 53.5235 -0.8161 286° West 451 519 34,000  Climbing FlightAware ADS-B
Thu 08:25:08 AM 53.5382 -0.8842 286° West 474 545 32,500 -2,093 Descending FlightAware UK
Thu 08:25:32 AM 53.5507 -0.9652 285° West 482 555 32,500 2,647 Level FlightAware UK
Thu 08:25:42 AM 53.5518 -0.9955 285° West 451 519 34,000  Climbing FlightAware ADS-B
Thu 08:26:02 AM 53.5666 -1.0673 285° West 478 550 32,500  Descending FlightAware UK
Thu 08:26:13 AM 53.5685 -1.1006 285° West 453 521 34,000  Climbing FlightAware ADS-B
Thu 08:26:32 AM 53.5826 -1.1694 285° West 478 550 32,500  Descending FlightAware UK
Thu 08:26:43 AM 53.5844 -1.2027 285° West 449 517 34,000  Climbing FlightAware ADS-B
Thu 08:27:08 AM 53.6010 -1.2895 285° West 468 539 32,500  Descending FlightAware UK
Thu 08:27:18 AM 53.6023 -1.3179 285° West 438 504 34,000  Climbing FlightAware ADS-B
Thu 08:27:38 AM 53.6161 -1.3873 285° West 458 527 32,500  Descending FlightAware UK
Thu 08:27:53 AM 53.6201 -1.4336 285° West 431 496 34,000  Climbing FlightAware ADS-B
Thu 08:28:14 AM 53.6336 -1.5045 285° West 458 527 32,500  Descending FlightAware UK
Thu 08:28:29 AM 53.6378 -1.5505 285° West 434 499 34,000 1,957 Climbing FlightAware ADS-B
Thu 08:29:00 AM 53.6534 -1.6526 284° West 436 502 34,000  Level FlightAware ADS-B
Thu 08:29:31 AM 53.6685 -1.7523 284° West 435 501 34,000  Level FlightAware ADS-B
Thu 08:30:01 AM 53.6835 -1.8512 284° West 434 499 34,000 -1,837 Level FlightAware ADS-B
Thu 08:30:20 AM 53.6958 -1.9168 284° West 460 529 32,500  Descending FlightAware UK
Thu 08:30:32 AM 53.6988 -1.9528 284° West 435 501 34,000  Climbing FlightAware ADS-B
Thu 08:30:50 AM 53.7105 -2.0155 284° West 466 536 32,500  Descending FlightAware UK
Thu 08:31:03 AM 53.7140 -2.0555 284° West 437 503 34,000  Climbing FlightAware ADS-B
Thu 08:31:31 AM 53.7306 -2.1538 284° West 464 534 32,500 -1,552 Descending FlightAware UK
Thu 08:32:01 AM 53.7450 -2.2535 284° West 466 536 32,500 2,195 Level FlightAware UK
Thu 08:32:12 AM 53.7450 -2.2700 284° West 439 505 34,000  Climbing FlightAware ADS-B
Thu 08:32:31 AM 53.7593 -2.3535 284° West 462 532 32,500  Descending FlightAware UK
Thu 08:32:57 AM 53.7680 -2.4260 284° West 440 506 34,000  Climbing FlightAware ADS-B
Thu 08:33:13 AM 53.7792 -2.4931 284° West 468 539 32,500 -2,647 Descending FlightAware UK
Thu 08:33:31 AM 53.7877 -2.5536 283° West 466 536 32,500 3,103 Level FlightAware UK
Thu 08:33:42 AM 53.7880 -2.5690 283° West 440 506 34,000  Climbing FlightAware ADS-B
Thu 08:34:01 AM 53.8016 -2.6545 283° West 466 536 32,500  Descending FlightAware UK
Thu 08:34:22 AM 53.8070 -2.7040 283° West 440 506 34,000  Climbing FlightAware ADS-B
Thu 08:34:37 AM 53.8182 -2.7749 283° West 464 534 32,500  Descending FlightAware UK
Thu 08:35:02 AM 53.8260 -2.8420 283° West 441 507 34,000  Climbing FlightAware ADS-B
Thu 08:35:31 AM 53.8432 -2.9565 283° West 464 534 32,500  Descending FlightAware UK
Thu 08:35:47 AM 53.8470 -2.9920 283° West 443 510 34,000  Climbing FlightAware ADS-B
Thu 08:36:07 AM 53.8600 -3.0781 283° West 470 541 32,500  Descending FlightAware UK
Thu 08:36:27 AM 53.8650 -3.1280 283° West 443 510 34,000  Climbing FlightAware ADS-B
Thu 08:36:43 AM 53.8768 -3.1998 283° West 472 543 32,500 -2,647 Descending FlightAware UK
Thu 08:37:01 AM 53.8850 -3.2600 283° West 468 539 32,500 3,750 Level FlightAware UK
Thu 08:37:07 AM 53.8840 -3.2650 283° West 441 507 34,000  Climbing FlightAware ADS-B
Thu 08:37:37 AM 53.9013 -3.3815 283° West 466 536 32,500  Descending FlightAware UK
Thu 08:37:52 AM 53.9040 -3.4120 283° West 439 505 34,000  Climbing FlightAware ADS-B
Thu 08:38:07 AM 53.9148 -3.4823 283° West 464 534 32,500  Descending FlightAware UK
Thu 08:38:32 AM 53.9220 -3.5460 283° West 438 504 34,000  Climbing FlightAware ADS-B
Thu 08:39:07 AM 53.9414 -3.6828 283° West 462 532 32,500  Descending FlightAware UK
Thu 08:39:17 AM 53.9430 -3.7000 283° West 438 504 34,000  Climbing FlightAware ADS-B
Thu 08:39:43 AM 53.9591 -3.8027 283° West 462 532 32,500  Descending FlightAware UK
Thu 08:39:57 AM 53.9670 -3.8330 283° West 443 510 34,000  Climbing FlightAware ADS-B
Thu 08:40:13 AM 53.9863 -3.8961 283° West 460 529 32,500 -2,647 Descending FlightAware UK
Thu 08:40:31 AM 54.0054 -3.9502 301° West 462 532 32,500 3,103 Level FlightAware UK
Thu 08:40:42 AM 54.0120 -3.9650 301° West 447 514 34,000  Climbing FlightAware ADS-B
Thu 08:41:01 AM 54.0386 -4.0393 301° West 462 532 32,500 -2,432 Descending FlightAware UK
Thu 08:41:19 AM 54.0589 -4.0922 303° West 460 529 32,500 4,286 Level FlightAware UK
Thu 08:41:22 AM 54.0570 -4.0820 303° West 446 513 34,000  Climbing FlightAware ADS-B
Thu 08:41:48 AM 54.0923 -4.1803 303° West 458 527 32,500  Descending FlightAware UK
Thu 08:42:02 AM 54.1010 -4.2010 303° West 447 514 34,000  Climbing FlightAware ADS-B
Thu 08:42:24 AM 54.1273 -4.2916 303° West 460 529 32,500 -2,250 Descending FlightAware UK
Thu 08:42:42 AM 54.1418 -4.3497 293° West 460 529 32,500 3,913 Level FlightAware UK
Thu 08:42:47 AM 54.1400 -4.3430 293° West 443 510 34,000  Climbing FlightAware ADS-B
Thu 08:43:06 AM 54.1597 -4.4276 293° West 454 522 32,500 -2,432 Descending FlightAware UK
Thu 08:43:24 AM 54.1722 -4.4862 290° West 454 522 32,500 4,286 Level FlightAware UK
Thu 08:43:27 AM 54.1700 -4.4760 290° West 439 505 34,000  Climbing FlightAware ADS-B
Thu 08:43:42 AM 54.1848 -4.5448 290° West 454 522 32,500 -2,727 Descending FlightAware UK
Thu 08:44:00 AM 54.1977 -4.6028 291° West 454 522 32,500 3,600 Level FlightAware UK
Thu 08:44:07 AM 54.1980 -4.6020 291° West 435 501 34,000  Climbing FlightAware ADS-B
Thu 08:44:24 AM 54.2153 -4.6796 291° West 450 518 32,500 -2,195 Descending FlightAware UK
Thu 08:44:48 AM 54.2328 -4.7563 291° West 448 516 32,500 3,214 Level FlightAware UK
Thu 08:44:52 AM 54.2300 -4.7430 291° West 433 498 34,000  Climbing FlightAware ADS-B
Thu 08:45:12 AM 54.2501 -4.8329 291° West 448 516 32,500 -2,368 Descending FlightAware UK
Thu 08:45:30 AM 54.2632 -4.8902 291° West 446 513 32,500 4,500 Level FlightAware UK
Thu 08:45:32 AM 54.2590 -4.8730 291° West 434 499 34,000  Climbing FlightAware ADS-B
Thu 08:45:48 AM 54.2763 -4.9478 291° West 450 518 32,500 -2,647 Descending FlightAware UK
Thu 08:46:06 AM 54.2893 -5.0055 291° West 448 516 32,500 3,103 Level FlightAware UK
Thu 08:46:17 AM 54.2920 -5.0180 291° West 435 501 34,000  Climbing FlightAware ADS-B
Thu 08:46:36 AM 54.3108 -5.1019 291° West 450 518 32,500 -2,432 Descending FlightAware UK
Thu 08:46:54 AM 54.3234 -5.1599 291° West 454 522 32,500 4,286 Level FlightAware UK
Thu 08:46:57 AM 54.3210 -5.1480 291° West 434 499 34,000  Climbing FlightAware ADS-B
Thu 08:47:12 AM 54.3358 -5.2173 291° West 456 525 32,500 -2,727 Descending FlightAware UK
Thu 08:47:30 AM 54.3484 -5.2752 290° West 456 525 32,500 3,600 Level FlightAware UK
Thu 08:47:37 AM 54.3470 -5.2680 290° West 435 501 34,000  Climbing FlightAware ADS-B
Thu 08:47:54 AM 54.3652 -5.3527 290° West 454 522 32,500 -2,571 Descending FlightAware UK
Thu 08:48:12 AM 54.3777 -5.4109 290° West 454 522 32,500 3,214 Level FlightAware UK
Thu 08:48:22 AM 54.3790 -5.4170 290° West 433 498 34,000  Climbing FlightAware ADS-B
Thu 08:48:42 AM 54.3985 -5.5076 290° West 452 520 32,500 -2,368 Descending FlightAware UK
Thu 08:49:00 AM 54.4110 -5.5656 290° West 454 522 32,500 4,500 Level FlightAware UK
Thu 08:49:02 AM 54.4070 -5.5470 290° West 432 497 34,000  Climbing FlightAware ADS-B
Thu 08:49:24 AM 54.4275 -5.6428 290° West 454 522 32,500 -2,250 Descending FlightAware UK
Thu 08:49:42 AM 54.4399 -5.7007 290° West 454 522 32,500 3,913 Level FlightAware UK
Thu 08:49:47 AM 54.4380 -5.6940 290° West 431 496 34,000  Climbing FlightAware ADS-B
Thu 08:50:06 AM 54.4562 -5.7779 290° West 450 518 32,500 -2,432 Descending FlightAware UK
Thu 08:50:24 AM 54.4684 -5.8356 290° West 452 520 32,500 4,286 Level FlightAware UK
Thu 08:50:27 AM 54.4640 -5.8190 290° West 429 494 34,000  Climbing FlightAware ADS-B
Thu 08:50:42 AM 54.4804 -5.8933 290° West 452 520 32,500 -2,727 Descending FlightAware UK
Thu 08:51:00 AM 54.4926 -5.9510 290° West 450 518 32,500 3,600 Level FlightAware UK
Thu 08:51:07 AM 54.4910 -5.9490 290° West 430 495 34,000  Climbing FlightAware ADS-B
Thu 08:51:24 AM 54.5089 -6.0279 290° West 452 520 32,500 -2,571 Descending FlightAware UK
Thu 08:51:42 AM 54.5209 -6.0858 290° West 450 518 32,500 3,214 Level FlightAware UK
Thu 08:51:52 AM 54.5220 -6.0960 290° West 431 496 34,000  Climbing FlightAware ADS-B
Thu 08:52:12 AM 54.5407 -6.1816 290° West 452 520 32,500  Descending FlightAware UK
Thu 08:52:32 AM 54.5490 -6.2270 290° West 432 497 34,000  Climbing FlightAware ADS-B
Thu 08:52:48 AM 54.5650 -6.2980 290° West 452 520 32,500 -2,647 Descending FlightAware UK
Thu 08:53:06 AM 54.5768 -6.3556 290° West 452 520 32,500 3,103 Level FlightAware UK
Thu 08:53:17 AM 54.5780 -6.3670 290° West 432 497 34,000  Climbing FlightAware ADS-B
Thu 08:53:36 AM 54.5969 -6.4530 290° West 450 518 32,500 -2,432 Descending FlightAware UK
Thu 08:53:54 AM 54.6094 -6.5116 290° West 450 518 32,500 4,286 Level FlightAware UK
Thu 08:53:57 AM 54.6050 -6.4980 290° West 432 497 34,000  Climbing FlightAware ADS-B
Thu 08:54:24 AM 54.6296 -6.6089 290° West 448 516 32,500  Descending FlightAware UK
Thu 08:54:37 AM 54.6320 -6.6290 290° West 432 497 34,000  Climbing FlightAware ADS-B
Thu 08:54:54 AM 54.6492 -6.7065 290° West 450 518 32,500 -2,571 Descending FlightAware UK
Thu 08:55:12 AM 54.6611 -6.7650 289° West 448 516 32,500 3,214 Level FlightAware UK
Thu 08:55:22 AM 54.6610 -6.7730 289° West 433 498 34,000  Climbing FlightAware ADS-B
Thu 08:55:42 AM 54.6806 -6.8630 289° West 452 520 32,500 -2,368 Descending FlightAware UK
Thu 08:56:00 AM 54.6924 -6.9220 289° West 450 518 32,500 4,500 Level FlightAware UK
Thu 08:56:02 AM 54.6870 -6.9050 289° West 435 501 34,000  Climbing FlightAware ADS-B
Thu 08:56:18 AM 54.7041 -6.9812 289° West 452 520 32,500 -2,647 Descending FlightAware UK
Thu 08:56:36 AM 54.7159 -7.0404 289° West 450 518 32,500  Level FlightAware UK
Thu 08:56:54 AM 54.7276 -7.0997 289° West 452 520 32,500  Level FlightAware UK
Thu 08:57:12 AM 54.7393 -7.1591 289° West 454 522 32,500 2,727 Level FlightAware UK
Thu 08:57:27 AM 54.7400 -7.1720 289° West 434 499 34,000  Climbing FlightAware ADS-B
Thu 08:57:42 AM 54.7590 -7.2581 289° West 454 522 32,500 -2,727 Descending FlightAware UK
Thu 08:58:00 AM 54.7713 -7.3173 290° West 454 522 32,500  Level FlightAware UK
Thu 08:58:18 AM 54.7837 -7.3765 290° West 454 522 32,500 2,432 Level FlightAware UK
Thu 08:58:37 AM 54.7870 -7.4010 290° West 438 504 34,000  Climbing FlightAware ADS-B
Thu 08:58:54 AM 54.8081 -7.4944 290° West 454 522 32,500 -2,571 Descending FlightAware UK
Thu 08:59:12 AM 54.8204 -7.5537 290° West 454 522 32,500 3,913 Level FlightAware UK
Thu 08:59:17 AM 54.8130 -7.5260 290° West 438 504 34,000  Climbing FlightAware ADS-B
Thu 08:59:36 AM 54.8367 -7.6330 290° West 454 522 32,500 -2,432 Descending FlightAware UK
Thu 08:59:54 AM 54.8488 -7.6925 289° West 454 522 32,500 4,286 Level FlightAware UK
Thu 08:59:57 AM 54.8390 -7.6570 289° West 438 504 34,000  Climbing FlightAware ADS-B
Thu 09:00:12 AM 54.8607 -7.7521 289° West 454 522 32,500 -2,727 Descending FlightAware UK
Thu 09:00:30 AM 54.8724 -7.8119 289° West 452 520 32,500 4,500 Level FlightAware UK
Thu 09:00:32 AM 54.8650 -7.7890 289° West 436 502 34,000  Climbing FlightAware ADS-B
Thu 09:00:48 AM 54.8842 -7.8716 289° West 454 522 32,500 -2,647 Descending FlightAware UK
Thu 09:01:06 AM 54.8956 -7.9317 288° West 454 522 32,500 2,647 Level FlightAware UK
Thu 09:01:22 AM 54.8960 -7.9490 288° West 436 502 34,000  Climbing FlightAware ADS-B
Thu 09:01:42 AM 54.9179 -8.0520 288° West 452 520 32,500 -2,368 Descending FlightAware UK
Thu 09:02:00 AM 54.9289 -8.1123 287° West 450 518 32,500 4,500 Level FlightAware UK
Thu 09:02:02 AM 54.9210 -8.0860 287° West 439 505 34,000  Climbing FlightAware ADS-B
Thu 09:02:18 AM 54.9398 -8.1727 287° West 450 518 32,500 -2,647 Descending FlightAware UK
Thu 09:02:36 AM 54.9507 -8.2333 287° West 448 516 32,500 3,750 Level FlightAware UK
Thu 09:02:42 AM 54.9430 -8.2090 287° West 440 506 34,000  Climbing FlightAware ADS-B
Thu 09:03:00 AM 54.9655 -8.3139 287° West 450 518 32,500 -2,500 Descending FlightAware UK
Thu 09:03:18 AM 54.9771 -8.3743 288° West 450 518 32,500 2,813 Level FlightAware UK
Thu 09:03:32 AM 54.9780 -8.3950 288° West 439 505 34,000  Climbing FlightAware ADS-B
Thu 09:03:48 AM 54.9968 -8.4748 288° West 450 518 32,500 -2,647 Descending FlightAware UK
Thu 09:04:06 AM 55.0085 -8.5353 289° West 448 516 32,500 3,750 Level FlightAware UK
Thu 09:04:12 AM 55.0040 -8.5290 289° West 439 505 34,000  Climbing FlightAware ADS-B
Thu 09:04:30 AM 55.0238 -8.6161 289° West 450 518 32,500 -2,500 Descending FlightAware UK
Thu 09:04:48 AM 55.0352 -8.6761 288° West 450 518 32,500 3,333 Level FlightAware UK
Thu 09:04:57 AM 55.0320 -8.6790 288° West 443 510 34,000  Climbing FlightAware ADS-B
Thu 09:05:12 AM 55.0502 -8.7575 288° West 450 518 32,500 -2,727 Descending FlightAware UK
Thu 09:05:30 AM 55.0610 -8.8189 287° West 452 520 32,500 3,600 Level FlightAware UK
Thu 09:05:37 AM 55.0560 -8.8180 287° West 445 512 34,000  Climbing FlightAware ADS-B
Thu 09:05:54 AM 55.0751 -8.9011 287° West 452 520 32,500 -2,571 Descending FlightAware UK
Thu 09:06:12 AM 55.0858 -8.9627 287° West 458 527 32,500 3,913 Level FlightAware UK
Thu 09:06:17 AM 55.0800 -8.9540 287° West 446 513 34,000 2,000 Climbing FlightAware ADS-B
Thu 09:06:57 AM 55.1040 -9.0930 287° West 445 512 34,000  Level FlightAware ADS-B
Thu 09:07:32 AM 55.1270 -9.2160 288° West 444 511 34,000  Level FlightAware ADS-B
Thu 09:09:57 AM 55.2060 -9.6760 279° West 412 474 34,000  Level FlightAware ADS-B
Thu 09:10:00 AM 55.1710 -9.7150 279° West  Level Estimated
Thu 09:10:47 AM 55.2320 -9.8330 286° West 409 471 34,000  Level FlightAware ADS-B
Thu 09:11:27 AM 55.2540 -9.9640 286° West 408 470 34,000  Level FlightAware ADS-B
Thu 09:12:07 AM 55.2750 -10.0910 286° West 408 470 34,000  Level FlightAware ADS-B
Thu 09:12:52 AM 55.2990 -10.2340 286° West 407 468 34,000  Level FlightAware ADS-B
Thu 09:13:32 AM 55.3210 -10.3650 286° West 408 470 34,000  Level FlightAware ADS-B
Thu 09:14:12 AM 55.3410 -10.4910 286° West 408 470 34,000  Level FlightAware ADS-B
Thu 09:14:57 AM 55.3650 -10.6350 286° West 408 470 34,000  Level FlightAware ADS-B
Thu 09:15:32 AM 55.3830 -10.7450 286° West 407 468 34,000  Level FlightAware ADS-B
Thu 09:16:37 AM 55.4150 -10.9470 286° West 404 465 34,000  Level FlightAware ADS-B
Thu 09:17:17 AM 55.4360 -11.0760 286° West 401 461 34,000  Level FlightAware ADS-B
Thu 09:17:57 AM 55.4560 -11.2030 286° West 399 459 34,000  Level FlightAware ADS-B
Thu 09:18:42 AM 55.4780 -11.3440 285° West 397 457 34,000  Level FlightAware ADS-B
Thu 09:19:22 AM 55.4980 -11.4700 286° West 394 453 34,000  Level FlightAware ADS-B
Thu 09:20:02 AM 55.5170 -11.5920 285° West 393 452 34,000  Level FlightAware ADS-B
Thu 09:20:47 AM 55.5380 -11.7330 285° West 395 455 34,000  Level FlightAware ADS-B
Thu 09:21:27 AM 55.5570 -11.8560 285° West 396 456 34,000  Level FlightAware ADS-B
Thu 09:22:12 AM 55.5790 -11.9990 285° West 397 457 34,000  Level FlightAware ADS-B
Thu 09:22:52 AM 55.5970 -12.1220 285° West 396 456 34,000  Level FlightAware ADS-B
Thu 09:23:37 AM 55.6180 -12.2560 286° West 397 457 34,000  Level FlightAware ADS-B
Thu 09:24:17 AM 55.6340 -12.3710 284° West 400 460 34,000 333 Level FlightAware ADS-B
Thu 09:25:07 AM 55.6620 -12.5520 285° West 403 464 34,500 655 Climbing FlightAware ADS-B
Thu 09:26:07 AM 55.6890 -12.7410 284° West 408 470 35,200 743 Climbing FlightAware ADS-B
Thu 09:26:52 AM 55.7110 -12.8970 284° West 412 474 35,800 600 Climbing FlightAware ADS-B
Thu 09:27:27 AM 55.7270 -13.0090 284° West 420 483 36,000 141 Climbing FlightAware ADS-B
Thu 09:28:17 AM 55.7500 -13.1680 284° West 427 491 36,000  Level FlightAware ADS-B
Thu 09:28:52 AM 55.7630 -13.2720 283° West 427 491 36,000  Level FlightAware ADS-B
Thu 09:29:32 AM 55.7780 -13.3890 283° West 427 491 36,000  Level FlightAware ADS-B
Thu 09:30:22 AM 55.7970 -13.5340 283° West 427 491 36,000  Level FlightAware ADS-B
Thu 09:31:02 AM 55.8120 -13.6510 283° West 427 491 36,000  Level FlightAware ADS-B
Thu 09:31:42 AM 55.8280 -13.7670 284° West 427 491 36,000  Level FlightAware ADS-B
Thu 09:32:22 AM 55.8430 -13.8840 283° West 427 491 36,000  Level FlightAware ADS-B
Thu 09:33:02 AM 55.8580 -14.0000 283° West 427 491 36,000  Level FlightAware ADS-B
Thu 09:33:52 AM 55.8770 -14.1460 283° West 427 491 36,000  Level FlightAware ADS-B
Thu 09:34:32 AM 55.8920 -14.2630 283° West 427 491 36,000  Level FlightAware ADS-B
Thu 09:35:12 AM 55.9070 -14.3790 283° West 427 491 36,000  Level FlightAware ADS-B
Thu 09:35:52 AM 55.9220 -14.4960 283° West 427 491 36,000  Level FlightAware ADS-B
Thu 09:36:32 AM 55.9370 -14.6130 283° West 427 491 36,000  Level FlightAware ADS-B
Thu 09:37:22 AM 55.9560 -14.7590 283° West 427 491 36,000  Level FlightAware ADS-B
Thu 09:38:02 AM 55.9710 -14.8760 283° West 427 491 36,000  Level FlightAware ADS-B
Thu 09:40:00 AM 55.9855 -15.2864 274° West  Level Estimated
Thu 09:41:00 AM 55.9924 -15.4951 273° West  Level Estimated
Thu 09:42:00 AM 55.9989 -15.7040 273° West  Level Estimated
Thu 09:43:00 AM 56.0053 -15.9197 273° West  Level Estimated
Thu 09:44:00 AM 56.0113 -16.1354 273° West  Level Estimated
Thu 09:45:00 AM 56.0169 -16.3513 273° West  Level Estimated
Thu 09:46:00 AM 56.0221 -16.5672 273° West  Level Estimated
Thu 09:47:00 AM 56.0270 -16.7831 272° West  Level Estimated
Thu 09:48:00 AM 56.0314 -16.9991 272° West  Level Estimated
Thu 09:49:00 AM 56.0355 -17.2152 272° West  Level Estimated
Thu 09:50:00 AM 56.0393 -17.4312 272° West  Level Estimated
Thu 09:51:00 AM 56.0426 -17.6474 272° West  Level Estimated
Thu 09:52:00 AM 56.0456 -17.8635 271° West  Level Estimated
Thu 09:53:00 AM 56.0482 -18.0797 271° West  Level Estimated
Thu 09:54:00 AM 56.0504 -18.2960 271° West  Level Estimated
Thu 09:55:00 AM 56.0522 -18.5122 271° West  Level Estimated
Thu 09:56:00 AM 56.0536 -18.7285 271° West  Level Estimated
Thu 09:57:00 AM 56.0547 -18.9448 271° West  Level Estimated
Thu 09:58:00 AM 56.0554 -19.1611 270° West  Level Estimated
Thu 09:59:00 AM 56.0558 -19.3774 270° West  Level Estimated
Thu 10:00:00 AM 56.0557 -19.5937 270° West  Level Estimated
Thu 10:01:00 AM 56.0552 -19.8100 270° West  Level Estimated
Thu 10:02:00 AM 56.0544 -20.0263 270° West  Level Estimated
Thu 10:03:00 AM 56.0532 -20.2425 270° West  Level Estimated
Thu 10:03:00 AM 56.0000 -20.0000 264° West 440 506 36,000  Level ETMS Enhanced Traffic Management System
Thu 10:04:00 AM 56.0517 -20.4588 269° West  Level Estimated
Thu 10:05:00 AM 56.0497 -20.6750 269° West  Level Estimated
Thu 10:06:00 AM 56.0474 -20.8913 269° West  Level Estimated
Thu 10:07:00 AM 56.0447 -21.1074 269° West  Level Estimated
Thu 10:08:00 AM 56.0416 -21.3236 269° West  Level Estimated
Thu 10:09:00 AM 55.8560 -22.1673 262° West 440 506 36,000  Level FlightAware Transoceanic
Thu 10:10:00 AM 55.8396 -22.3831 262° West 440 506 36,000  Level FlightAware Transoceanic
Thu 10:11:00 AM 55.8227 -22.5987 262° West 440 506 36,000  Level FlightAware Transoceanic
Thu 10:12:00 AM 55.8055 -22.8141 262° West 440 506 36,000  Level FlightAware Transoceanic
Thu 10:13:00 AM 55.7878 -23.0293 262° West 440 506 36,000  Level FlightAware Transoceanic
Thu 10:14:00 AM 55.7699 -23.2444 261° West 440 506 36,000  Level FlightAware Transoceanic
Thu 10:15:00 AM 55.7515 -23.4592 261° West 440 506 36,000  Level FlightAware Transoceanic
Thu 10:16:00 AM 55.7328 -23.6738 261° West 440 506 36,000  Level FlightAware Transoceanic
Thu 10:17:00 AM 55.7136 -23.8882 261° West 440 506 36,000  Level FlightAware Transoceanic
Thu 10:18:00 AM 55.6942 -24.1024 261° West 440 506 36,000  Level FlightAware Transoceanic
Thu 10:19:00 AM 55.6743 -24.3164 261° West 440 506 36,000  Level FlightAware Transoceanic
Thu 10:20:00 AM 55.6541 -24.5302 260° West 440 506 36,000  Level FlightAware Transoceanic
Thu 10:21:00 AM 55.6335 -24.7437 260° West 440 506 36,000  Level FlightAware Transoceanic
Thu 10:22:00 AM 55.6125 -24.9571 260° West 440 506 36,000  Level FlightAware Transoceanic
Thu 10:23:00 AM 55.5912 -25.1702 260° West 440 506 36,000  Level FlightAware Transoceanic
Thu 10:24:00 AM 55.5695 -25.3830 260° West 440 506 36,000  Level FlightAware Transoceanic
Thu 10:25:00 AM 55.5474 -25.5956 260° West 440 506 36,000  Level FlightAware Transoceanic
Thu 10:26:00 AM 55.5249 -25.8080 259° West 440 506 36,000  Level FlightAware Transoceanic
Thu 10:27:00 AM 55.5021 -26.0202 259° West 440 506 36,000  Level FlightAware Transoceanic
Thu 10:28:00 AM 55.4789 -26.2321 259° West 440 506 36,000  Level FlightAware Transoceanic
Thu 10:29:00 AM 55.4554 -26.4437 259° West 440 506 36,000  Level FlightAware Transoceanic
Thu 10:30:00 AM 55.4315 -26.6551 259° West 440 506 36,000  Level FlightAware Transoceanic
Thu 10:31:00 AM 55.4072 -26.8662 258° West 440 506 36,000  Level FlightAware Transoceanic
Thu 10:32:00 AM 55.3826 -27.0771 258° West 440 506 36,000  Level FlightAware Transoceanic
Thu 10:33:00 AM 55.3576 -27.2877 258° West 440 506 36,000  Level FlightAware Transoceanic
Thu 10:34:00 AM 55.3322 -27.4980 258° West 440 506 36,000  Level FlightAware Transoceanic
Thu 10:35:00 AM 55.3065 -27.7081 258° West 440 506 36,000  Level FlightAware Transoceanic
Thu 10:36:00 AM 55.2804 -27.9179 258° West 440 506 36,000  Level FlightAware Transoceanic
Thu 10:37:00 AM 55.2540 -28.1274 257° West 440 506 36,000  Level FlightAware Transoceanic
Thu 10:38:00 AM 55.2272 -28.3366 257° West 440 506 36,000  Level FlightAware Transoceanic
Thu 10:39:00 AM 55.2000 -28.5456 257° West 440 506 36,000  Level FlightAware Transoceanic
Thu 10:40:00 AM 55.1725 -28.7542 257° West 440 506 36,000  Level FlightAware Transoceanic
Thu 10:41:00 AM 55.1446 -28.9626 257° West 440 506 36,000  Level FlightAware Transoceanic
Thu 10:42:00 AM 55.1164 -29.1707 257° West 440 506 36,000  Level FlightAware Transoceanic
Thu 10:43:00 AM 55.0878 -29.3785 256° West 440 506 36,000  Level FlightAware Transoceanic
Thu 10:44:00 AM 55.0589 -29.5859 256° West 440 506 36,000  Level FlightAware Transoceanic
Thu 10:45:00 AM 55.0296 -29.7931 256° West 440 506 36,000  Level FlightAware Transoceanic
Thu 10:46:00 AM 55.0004 -29.9975 256° West  Level FlightAware Approximate
Thu 10:47:00 AM 54.9709 -30.2016 256° West  Level FlightAware Approximate
Thu 10:48:00 AM 54.9882 -30.2043 264° West  Level FlightAware Approximate
Thu 10:49:00 AM 54.9757 -30.4137 264° West  Level FlightAware Approximate
Thu 10:50:00 AM 54.9629 -30.6229 264° West  Level FlightAware Approximate
Thu 10:50:00 AM 55.0000 -30.0000 264° West 432 497 36,000  Level ETMS Enhanced Traffic Management System
Thu 10:51:00 AM 54.9497 -30.8320 264° West  Level FlightAware Approximate
Thu 10:52:00 AM 54.9361 -31.0410 264° West  Level FlightAware Approximate
Thu 10:53:00 AM 54.9222 -31.2498 263° West  Level FlightAware Approximate
Thu 10:54:00 AM 54.9080 -31.4584 263° West  Level FlightAware Approximate
Thu 10:55:00 AM 54.8934 -31.6669 263° West  Level FlightAware Approximate
Thu 10:56:00 AM 54.8635 -32.0777 263° West 432 497 36,000  Level FlightAware Transoceanic
Thu 10:57:00 AM 54.8479 -32.2846 262° West 432 497 36,000  Level FlightAware Transoceanic
Thu 10:58:00 AM 54.8320 -32.4914 262° West 432 497 36,000  Level FlightAware Transoceanic
Thu 10:59:00 AM 54.8157 -32.6981 262° West 432 497 36,000  Level FlightAware Transoceanic
Thu 11:00:00 AM 54.7990 -32.9045 262° West 432 497 36,000  Level FlightAware Transoceanic
Thu 11:01:00 AM 54.7820 -33.1108 262° West 432 497 36,000  Level FlightAware Transoceanic
Thu 11:02:00 AM 54.7647 -33.3169 262° West 432 497 36,000  Level FlightAware Transoceanic
Thu 11:03:00 AM 54.7470 -33.5228 261° West 432 497 36,000  Level FlightAware Transoceanic
Thu 11:04:00 AM 54.7289 -33.7286 261° West 432 497 36,000  Level FlightAware Transoceanic
Thu 11:05:00 AM 54.7105 -33.9342 261° West 432 497 36,000  Level FlightAware Transoceanic
Thu 11:06:00 AM 54.6918 -34.1395 261° West 432 497 36,000  Level FlightAware Transoceanic
Thu 11:07:00 AM 54.6727 -34.3447 261° West 432 497 36,000  Level FlightAware Transoceanic
Thu 11:08:00 AM 54.6533 -34.5497 261° West 432 497 36,000  Level FlightAware Transoceanic
Thu 11:09:00 AM 54.6335 -34.7545 260° West 432 497 36,000  Level FlightAware Transoceanic
Thu 11:10:00 AM 54.6134 -34.9591 260° West 432 497 36,000  Level FlightAware Transoceanic
Thu 11:11:00 AM 54.5929 -35.1635 260° West 432 497 36,000  Level FlightAware Transoceanic
Thu 11:12:00 AM 54.5721 -35.3677 260° West 432 497 36,000  Level FlightAware Transoceanic
Thu 11:13:00 AM 54.5509 -35.5717 260° West 432 497 36,000  Level FlightAware Transoceanic
Thu 11:14:00 AM 54.5294 -35.7754 260° West 432 497 36,000  Level FlightAware Transoceanic
Thu 11:15:00 AM 54.5076 -35.9790 259° West 432 497 36,000  Level FlightAware Transoceanic
Thu 11:16:00 AM 54.4854 -36.1823 259° West 432 497 36,000  Level FlightAware Transoceanic
Thu 11:17:00 AM 54.4629 -36.3854 259° West 432 497 36,000  Level FlightAware Transoceanic
Thu 11:18:00 AM 54.4400 -36.5883 259° West 432 497 36,000  Level FlightAware Transoceanic
Thu 11:19:00 AM 54.4168 -36.7909 259° West 432 497 36,000  Level FlightAware Transoceanic
Thu 11:20:00 AM 54.3933 -36.9933 259° West 432 497 36,000  Level FlightAware Transoceanic
Thu 11:21:00 AM 54.3694 -37.1955 258° West 432 497 36,000  Level FlightAware Transoceanic
Thu 11:22:00 AM 54.3452 -37.3975 258° West 432 497 36,000  Level FlightAware Transoceanic
Thu 11:23:00 AM 54.3206 -37.5992 258° West 432 497 36,000  Level FlightAware Transoceanic
Thu 11:24:00 AM 54.2957 -37.8006 258° West 432 497 36,000  Level FlightAware Transoceanic
Thu 11:25:00 AM 54.2705 -38.0019 258° West 432 497 36,000  Level FlightAware Transoceanic
Thu 11:26:00 AM 54.2450 -38.2028 258° West 432 497 36,000  Level FlightAware Transoceanic
Thu 11:27:00 AM 54.2191 -38.4035 257° West 432 497 36,000  Level FlightAware Transoceanic
Thu 11:28:00 AM 54.1928 -38.6040 257° West 432 497 36,000  Level FlightAware Transoceanic
Thu 11:29:00 AM 54.1663 -38.8042 257° West 432 497 36,000  Level FlightAware Transoceanic
Thu 11:30:00 AM 54.1394 -39.0042 257° West 432 497 36,000  Level FlightAware Transoceanic
Thu 11:31:00 AM 54.1122 -39.2039 257° West 432 497 36,000  Level FlightAware Transoceanic
Thu 11:32:00 AM 54.0846 -39.4033 257° West 432 497 36,000  Level FlightAware Transoceanic
Thu 11:33:00 AM 54.0568 -39.6025 257° West 432 497 36,000  Level FlightAware Transoceanic
Thu 11:34:00 AM 54.0285 -39.8014 256° West 432 497 36,000  Level FlightAware Transoceanic
Thu 11:35:00 AM 53.9999 -40.0010 256° West  Level FlightAware Approximate
Thu 11:36:00 AM 53.9995 -40.0020 248° West  Level FlightAware Approximate
Thu 11:37:00 AM 53.9535 -40.1919 248° West  Level FlightAware Approximate
Thu 11:38:00 AM 53.9072 -40.3814 248° West  Level FlightAware Approximate
Thu 11:38:58 AM 54.0000 -40.0000 248° West 406 467 36,000  Level ETMS Enhanced Traffic Management System
Thu 11:39:00 AM 53.8606 -40.5704 247° West  Level FlightAware Approximate
Thu 11:40:00 AM 53.8141 -40.7579 247° West  Level FlightAware Approximate
Thu 11:41:00 AM 53.7672 -40.9450 247° West  Level FlightAware Approximate
Thu 11:42:00 AM 53.7200 -41.1316 247° West  Level FlightAware Approximate
Thu 11:43:00 AM 53.6725 -41.3179 247° West  Level FlightAware Approximate
Thu 11:44:00 AM 53.6248 -41.5037 247° West  Level FlightAware Approximate
Thu 11:45:00 AM 53.6053 -41.5867 247° West 406 467 36,000  Level FlightAware Transoceanic
Thu 11:46:00 AM 53.5601 -41.7612 246° West 406 467 36,000  Level FlightAware Transoceanic
Thu 11:47:00 AM 53.5147 -41.9352 246° West 406 467 36,000  Level FlightAware Transoceanic
Thu 11:48:00 AM 53.4691 -42.1089 246° West 406 467 36,000  Level FlightAware Transoceanic
Thu 11:49:00 AM 53.4232 -42.2822 246° West 406 467 36,000  Level FlightAware Transoceanic
Thu 11:50:00 AM 53.3770 -42.4552 246° West 406 467 36,000  Level FlightAware Transoceanic
Thu 11:51:00 AM 53.3306 -42.6278 246° West 406 467 36,000  Level FlightAware Transoceanic
Thu 11:52:00 AM 53.2840 -42.8000 246° West 406 467 36,000  Level FlightAware Transoceanic
Thu 11:53:00 AM 53.2371 -42.9718 245° Southwest 406 467 36,000  Level FlightAware Transoceanic
Thu 11:54:00 AM 53.1899 -43.1433 245° Southwest 406 467 36,000  Level FlightAware Transoceanic
Thu 11:55:00 AM 53.1425 -43.3143 245° Southwest 406 467 36,000  Level FlightAware Transoceanic
Thu 11:56:00 AM 53.0949 -43.4850 245° Southwest 406 467 36,000  Level FlightAware Transoceanic
Thu 11:57:00 AM 53.0470 -43.6553 245° Southwest 406 467 36,000  Level FlightAware Transoceanic
Thu 11:58:00 AM 52.9989 -43.8253 245° Southwest 406 467 36,000  Level FlightAware Transoceanic
Thu 11:59:00 AM 52.9505 -43.9948 245° Southwest 406 467 36,000  Level FlightAware Transoceanic
Thu 12:00:00 PM 52.9019 -44.1640 244° Southwest 406 467 36,000  Level FlightAware Transoceanic
Thu 12:01:00 PM 52.8531 -44.3328 244° Southwest 406 467 36,000  Level FlightAware Transoceanic
Thu 12:02:00 PM 52.8040 -44.5012 244° Southwest 406 467 36,000  Level FlightAware Transoceanic
Thu 12:03:00 PM 52.7547 -44.6693 244° Southwest 406 467 36,000  Level FlightAware Transoceanic
Thu 12:04:00 PM 52.7051 -44.8369 244° Southwest 406 467 36,000  Level FlightAware Transoceanic
Thu 12:05:00 PM 52.6553 -45.0042 244° Southwest 406 467 36,000  Level FlightAware Transoceanic
Thu 12:06:00 PM 52.6053 -45.1711 244° Southwest 406 467 36,000  Level FlightAware Transoceanic
Thu 12:07:00 PM 52.5551 -45.3376 244° Southwest 406 467 36,000  Level FlightAware Transoceanic
Thu 12:08:00 PM 52.5046 -45.5037 243° Southwest 406 467 36,000  Level FlightAware Transoceanic
Thu 12:09:00 PM 52.4538 -45.6694 243° Southwest 406 467 36,000  Level FlightAware Transoceanic
Thu 12:10:00 PM 52.4029 -45.8348 243° Southwest 406 467 36,000  Level FlightAware Transoceanic
Thu 12:11:00 PM 52.3517 -45.9998 243° Southwest 406 467 36,000  Level FlightAware Transoceanic
Thu 12:12:00 PM 52.3003 -46.1644 243° Southwest 406 467 36,000  Level FlightAware Transoceanic
Thu 12:13:00 PM 52.2486 -46.3286 243° Southwest 406 467 36,000  Level FlightAware Transoceanic
Thu 12:14:00 PM 52.1968 -46.4924 243° Southwest 406 467 36,000  Level FlightAware Transoceanic
Thu 12:15:00 PM 52.1447 -46.6559 242° Southwest 406 467 36,000  Level FlightAware Transoceanic
Thu 12:16:00 PM 52.0924 -46.8190 242° Southwest 406 467 36,000  Level FlightAware Transoceanic
Thu 12:17:00 PM 52.0398 -46.9816 242° Southwest 406 467 36,000  Level FlightAware Transoceanic
Thu 12:18:00 PM 51.9870 -47.1439 242° Southwest 406 467 36,000  Level FlightAware Transoceanic
Thu 12:19:00 PM 51.9340 -47.3059 242° Southwest 406 467 36,000  Level FlightAware Transoceanic
Thu 12:20:00 PM 51.8808 -47.4674 242° Southwest 406 467 36,000  Level FlightAware Transoceanic
Thu 12:21:00 PM 51.8274 -47.6286 242° Southwest 406 467 36,000  Level FlightAware Transoceanic
Thu 12:22:00 PM 51.7737 -47.7893 242° Southwest 406 467 36,000  Level FlightAware Transoceanic
Thu 12:23:00 PM 51.7198 -47.9497 241° Southwest 406 467 36,000  Level FlightAware Transoceanic
Thu 12:24:00 PM 51.6658 -48.1097 241° Southwest 406 467 36,000  Level FlightAware Transoceanic
Thu 12:25:00 PM 51.6115 -48.2693 241° Southwest 406 467 36,000  Level FlightAware Transoceanic
Thu 12:26:00 PM 51.5569 -48.4286 241° Southwest 406 467 36,000  Level FlightAware Transoceanic
Thu 12:27:00 PM 51.5022 -48.5874 241° Southwest 406 467 36,000  Level FlightAware Transoceanic
Thu 12:28:00 PM 51.4472 -48.7459 241° Southwest 406 467 36,000  Level FlightAware Transoceanic
Thu 12:29:00 PM 51.3921 -48.9040 241° Southwest 406 467 36,000  Level FlightAware Transoceanic
Thu 12:30:00 PM 51.3367 -49.0617 241° Southwest 406 467 36,000  Level FlightAware Transoceanic
Thu 12:31:00 PM 51.2811 -49.2191 240° Southwest 406 467 36,000  Level FlightAware Transoceanic
Thu 12:32:00 PM 51.2253 -49.3760 240° Southwest 406 467 36,000  Level FlightAware Transoceanic
Thu 12:33:00 PM 51.1693 -49.5326 240° Southwest 406 467 36,000  Level FlightAware Transoceanic
Thu 12:34:00 PM 51.1131 -49.6888 240° Southwest 406 467 36,000  Level FlightAware Transoceanic
Thu 12:35:00 PM 51.0566 -49.8446 240° Southwest 406 467 36,000  Level FlightAware Transoceanic
Thu 12:36:00 PM 50.9964 -50.0097 240° Southwest  Level FlightAware Approximate
Thu 12:37:00 PM 50.9859 -50.0000 180° South  Level FlightAware Approximate
Thu 12:38:00 PM 50.9438 -50.1754 250° West  Level FlightAware Approximate
Thu 12:39:00 PM 50.9031 -50.3544 250° West  Level FlightAware Approximate
Thu 12:39:00 PM 51.0000 -50.0000 250° West 419 482 36,000  Level ETMS Enhanced Traffic Management System
Thu 12:40:00 PM 50.8621 -50.5330 250° West  Level FlightAware Approximate
Thu 12:41:00 PM 50.8208 -50.7113 250° West  Level FlightAware Approximate
Thu 12:42:00 PM 50.7793 -50.8892 250° West  Level FlightAware Approximate
Thu 12:42:52 PM 50.7290 -51.1440 250° West 408 470 36,000  Level FlightAware ADS-B
Thu 12:43:00 PM 50.7375 -51.0669 250° West  Level FlightAware Approximate
Thu 12:43:47 PM 50.6930 -51.2870 248° West 409 471 36,000  Level FlightAware ADS-B
Thu 12:44:27 PM 50.6690 -51.3810 250° West 409 471 36,000  Level FlightAware ADS-B
Thu 12:45:07 PM 50.6450 -51.4760 248° West 409 471 36,000  Level FlightAware ADS-B
Thu 12:45:47 PM 50.6210 -51.5700 248° West 409 471 36,000  Level FlightAware ADS-B
Thu 12:46:37 PM 50.5900 -51.6870 247° West 409 471 36,000  Level FlightAware ADS-B
Thu 12:47:17 PM 50.5660 -51.7810 248° West 409 471 36,000  Level FlightAware ADS-B
Thu 12:47:57 PM 50.5420 -51.8750 248° West 409 471 36,000  Level FlightAware ADS-B
Thu 12:48:37 PM 50.5180 -51.9690 248° West 409 471 36,000  Level FlightAware ADS-B
Thu 12:49:17 PM 50.4940 -52.0630 248° West 409 471 36,000  Level FlightAware ADS-B
Thu 12:50:07 PM 50.4640 -52.1800 248° West 409 471 36,000  Level FlightAware ADS-B
Thu 12:50:47 PM 50.4400 -52.2730 248° West 409 471 36,000  Level FlightAware ADS-B
Thu 12:51:27 PM 50.4160 -52.3670 248° West 409 471 36,000 1,412 Level FlightAware ADS-B
Thu 12:52:12 PM 50.3150 -52.7010 245° Southwest 417 480 38,000 1,412 Climbing FlightAware ADS-B
Thu 12:52:52 PM 50.2850 -52.8090 247° West 415 478 38,000  Level FlightAware ADS-B
Thu 12:53:32 PM 50.2550 -52.9160 246° West 415 478 38,000  Level FlightAware ADS-B
Thu 12:53:49 PM 50.2333 -52.9000 246° West 410 472 38,000  Level Gander Center
Thu 12:54:49 PM 50.1833 -53.0667 245° Southwest 420 483 38,000  Level Gander Center
Thu 12:55:49 PM 50.1333 -53.2333 245° Southwest 420 483 38,000  Level Gander Center
Thu 12:56:23 PM 50.1167 -53.3500 257° West 410 472 38,000  Level Moncton Center
Thu 01:02:22 PM 49.8370 -54.3430 257° West 412 474 38,000  Level FlightAware ADS-B
Thu 01:02:49 PM 49.8167 -54.3833 257° West 410 472 38,000  Level Gander Center
Thu 01:03:21 PM 49.7833 -54.4667 238° Southwest 410 472 38,000  Level Gander Center
Thu 01:04:21 PM 49.7333 -54.6333 245° Southwest 410 472 38,000  Level Gander Center
Thu 01:05:21 PM 49.6833 -54.7833 243° Southwest 410 472 38,000  Level Gander Center
Thu 01:06:21 PM 49.6333 -54.9500 245° Southwest 410 472 38,000  Level Gander Center
Thu 01:07:21 PM 49.5833 -55.1167 245° Southwest 410 472 38,000  Level Gander Center
Thu 01:08:21 PM 49.5500 -55.2667 251° West 410 472 38,000  Level Gander Center
Thu 01:09:21 PM 49.4833 -55.4333 238° Southwest 410 472 38,000  Level Gander Center
Thu 01:09:49 PM 49.4667 -55.4833 243° Southwest 410 472 38,000  Level Gander Center
Thu 01:15:27 PM 49.1900 -56.4190 243° Southwest 415 478 38,000  Level FlightAware ADS-B
Thu 01:16:42 PM 49.1260 -56.6160 244° Southwest 412 474 38,000  Level FlightAware ADS-B
Thu 01:22:32 PM 48.8220 -57.5300 243° Southwest 414 476 38,000  Level FlightAware ADS-B
Thu 01:23:07 PM 48.7920 -57.6170 242° Southwest 413 475 38,000  Level FlightAware ADS-B
Thu 01:23:57 PM 48.7490 -57.7460 243° Southwest 413 475 38,000  Level FlightAware ADS-B
Thu 01:24:37 PM 48.7160 -57.8430 243° Southwest 410 472 38,000  Level FlightAware ADS-B
Thu 01:25:37 PM 48.6640 -57.9950 243° Southwest 410 472 38,000  Level FlightAware ADS-B
Thu 01:26:17 PM 48.6290 -58.0990 243° Southwest 411 473 38,000  Level FlightAware ADS-B
Thu 01:26:52 PM 48.5970 -58.1900 242° Southwest 411 473 38,000  Level FlightAware ADS-B
Thu 01:27:42 PM 48.5530 -58.3170 242° Southwest 412 474 38,000  Level FlightAware ADS-B
Thu 01:28:32 PM 48.5120 -58.4340 242° Southwest 412 474 38,000  Level FlightAware ADS-B
Thu 01:29:12 PM 48.4770 -58.5330 242° Southwest 412 474 38,000  Level FlightAware ADS-B
Thu 01:29:57 PM 48.4350 -58.6530 242° Southwest 414 476 38,000  Level FlightAware ADS-B
Thu 01:30:42 PM 48.4000 -58.7520 242° Southwest 414 476 38,000  Level FlightAware ADS-B
Thu 01:31:22 PM 48.3700 -58.8390 243° Southwest 414 476 38,000  Level FlightAware ADS-B
Thu 01:32:02 PM 48.3390 -58.9250 242° Southwest 414 476 38,000  Level FlightAware ADS-B
Thu 01:32:42 PM 48.3080 -59.0120 242° Southwest 414 476 38,000  Level FlightAware ADS-B
Thu 01:33:32 PM 48.2700 -59.1200 242° Southwest 414 476 38,000  Level FlightAware ADS-B
Thu 01:34:12 PM 48.2040 -59.3030 242° Southwest 412 474 38,000  Level FlightAware ADS-B
Thu 01:35:12 PM 48.1550 -59.4370 241° Southwest 413 475 38,000  Level FlightAware ADS-B
Thu 01:36:07 PM 48.1060 -59.5730 242° Southwest 415 478 38,000  Level FlightAware ADS-B
Thu 01:36:47 PM 48.0740 -59.6580 241° Southwest 415 478 38,000  Level FlightAware ADS-B
Thu 01:37:27 PM 48.0430 -59.7440 242° Southwest 415 478 38,000  Level FlightAware ADS-B
Thu 01:38:07 PM 48.0110 -59.8290 241° Southwest 415 478 38,000  Level FlightAware ADS-B
Thu 01:38:47 PM 47.9790 -59.9140 241° Southwest 415 478 38,000  Level FlightAware ADS-B
Thu 01:39:37 PM 47.9400 -60.0210 241° Southwest 415 478 38,000  Level FlightAware ADS-B
Thu 01:40:17 PM 47.9080 -60.1060 241° Southwest 415 478 38,000  Level FlightAware ADS-B
Thu 01:40:57 PM 47.8770 -60.1910 241° Southwest 415 478 38,000  Level FlightAware ADS-B
Thu 01:41:37 PM 47.8450 -60.2760 241° Southwest 415 478 38,000  Level FlightAware ADS-B
Thu 01:42:17 PM 47.8130 -60.3620 241° Southwest 415 478 38,000  Level FlightAware ADS-B
Thu 01:43:07 PM 47.7740 -60.4680 241° Southwest 415 478 38,000  Level FlightAware ADS-B
Thu 01:43:47 PM 47.7420 -60.5530 241° Southwest 415 478 38,000  Level FlightAware ADS-B
Thu 01:44:27 PM 47.7100 -60.6380 241° Southwest 415 478 38,000  Level FlightAware ADS-B
Thu 01:45:07 PM 47.6790 -60.7220 241° Southwest 415 478 38,000  Level FlightAware ADS-B
Thu 01:46:07 PM 47.5390 -61.0850 240° Southwest 415 478 38,000  Level FlightAware ADS-B
Thu 01:46:47 PM 47.5010 -61.1840 240° Southwest 417 480 38,000  Level FlightAware ADS-B
Thu 01:47:32 PM 47.4600 -61.2900 240° Southwest 416 479 38,000  Level FlightAware ADS-B
Thu 01:48:12 PM 47.4220 -61.3890 240° Southwest 414 476 38,000  Level FlightAware ADS-B
Thu 01:48:57 PM 47.3770 -61.5040 240° Southwest 414 476 38,000  Level FlightAware ADS-B
Thu 01:49:37 PM 47.3390 -61.6010 240° Southwest 413 475 38,000  Level FlightAware ADS-B
Thu 01:50:17 PM 47.3020 -61.6960 240° Southwest 412 474 38,000  Level FlightAware ADS-B
Thu 01:51:02 PM 47.2630 -61.7940 240° Southwest 411 473 38,000  Level FlightAware ADS-B
Thu 01:51:42 PM 47.2240 -61.8920 240° Southwest 411 473 38,000  Level FlightAware ADS-B
Thu 01:52:22 PM 47.1830 -61.9950 240° Southwest 411 473 38,000  Level FlightAware ADS-B
Thu 01:53:07 PM 47.1440 -62.0910 239° Southwest 411 473 38,000  Level FlightAware ADS-B
Thu 01:53:42 PM 47.1060 -62.1850 239° Southwest 411 473 38,000  Level FlightAware ADS-B
Thu 01:54:32 PM 47.0570 -62.3080 240° Southwest 409 471 38,000  Level FlightAware ADS-B
Thu 01:55:07 PM 47.0250 -62.3850 239° Southwest 408 470 38,000  Level FlightAware ADS-B
Thu 01:55:57 PM 46.9780 -62.5000 239° Southwest 407 468 38,000  Level FlightAware ADS-B
Thu 01:56:37 PM 46.9450 -62.5800 239° Southwest 407 468 38,000  Level FlightAware ADS-B
Thu 01:57:17 PM 46.9120 -62.6600 239° Southwest 407 468 38,000  Level FlightAware ADS-B
Thu 01:57:57 PM 46.8790 -62.7410 239° Southwest 407 468 38,000  Level FlightAware ADS-B
Thu 01:58:37 PM 46.8460 -62.8210 239° Southwest 407 468 38,000  Level FlightAware ADS-B
Thu 01:59:17 PM 46.8130 -62.9010 239° Southwest 407 468 38,000  Level FlightAware ADS-B
Thu 02:00:07 PM 46.7720 -63.0010 239° Southwest 407 468 38,000  Level FlightAware ADS-B
Thu 02:00:47 PM 46.7390 -63.0810 239° Southwest 407 468 38,000  Level FlightAware ADS-B
Thu 02:01:27 PM 46.7060 -63.1610 239° Southwest 407 468 38,000  Level FlightAware ADS-B
Thu 02:02:07 PM 46.6730 -63.2410 239° Southwest 407 468 38,000  Level FlightAware ADS-B
Thu 02:02:57 PM 46.6320 -63.3410 239° Southwest 407 468 38,000  Level FlightAware ADS-B
Thu 02:03:37 PM 46.5990 -63.4210 239° Southwest 407 468 38,000  Level FlightAware ADS-B
Thu 02:04:17 PM 46.5660 -63.5010 239° Southwest 407 468 38,000  Level FlightAware ADS-B
Thu 02:04:57 PM 46.5330 -63.5810 239° Southwest 407 468 38,000 250 Level FlightAware ADS-B
Thu 02:08:17 PM 46.2400 -64.2400 237° Southwest 420 483 39,000 250 Climbing FlightAware ADS-B
Thu 02:08:57 PM 46.1980 -64.3350 237° Southwest 415 478 39,000  Level FlightAware ADS-B
Thu 02:09:42 PM 46.1560 -64.4300 237° Southwest 412 474 39,000  Level FlightAware ADS-B
Thu 02:10:22 PM 46.1200 -64.5080 236° Southwest 412 474 39,000  Level FlightAware ADS-B
Thu 02:11:17 PM 46.0550 -64.6580 238° Southwest 409 471 39,000  Level FlightAware ADS-B
Thu 02:12:17 PM 45.9960 -64.7870 237° Southwest 411 473 39,000  Level FlightAware ADS-B
Thu 02:12:57 PM 45.9520 -64.8850 237° Southwest 415 478 39,000  Level FlightAware ADS-B
Thu 02:13:37 PM 45.9090 -64.9790 237° Southwest 418 481 39,000  Level FlightAware ADS-B
Thu 02:14:22 PM 45.8610 -65.0860 237° Southwest 418 481 39,000  Level FlightAware ADS-B
Thu 02:15:02 PM 45.8200 -65.1750 237° Southwest 421 484 39,000  Level FlightAware ADS-B
Thu 02:15:47 PM 45.7700 -65.2860 237° Southwest 422 486 39,000  Level FlightAware ADS-B
Thu 02:16:27 PM 45.7290 -65.3770 237° Southwest 422 486 39,000  Level FlightAware ADS-B
Thu 02:17:07 PM 45.6860 -65.4700 237° Southwest 422 486 39,000  Level FlightAware ADS-B
Thu 02:17:52 PM 45.6370 -65.5780 237° Southwest 423 487 39,000  Level FlightAware ADS-B
Thu 02:18:32 PM 45.5950 -65.6700 237° Southwest 422 486 39,000  Level FlightAware ADS-B
Thu 02:19:17 PM 45.5470 -65.7730 236° Southwest 422 486 39,000  Level FlightAware ADS-B
Thu 02:19:57 PM 45.5040 -65.8650 236° Southwest 422 486 39,000  Level FlightAware ADS-B
Thu 02:20:37 PM 45.4600 -65.9580 236° Southwest 422 486 39,000  Level FlightAware ADS-B
Thu 02:21:22 PM 45.4100 -66.0630 236° Southwest 422 486 39,000  Level FlightAware ADS-B
Thu 02:22:02 PM 45.3670 -66.1550 236° Southwest 421 484 39,000  Level FlightAware ADS-B
Thu 02:22:47 PM 45.3190 -66.2560 236° Southwest 420 483 39,000  Level FlightAware ADS-B
Thu 02:23:27 PM 45.2760 -66.3470 236° Southwest 422 486 39,000  Level FlightAware ADS-B
Thu 02:24:07 PM 45.2320 -66.4390 236° Southwest 421 484 39,000  Level FlightAware ADS-B
Thu 02:24:52 PM 45.1830 -66.5440 237° Southwest 421 484 39,000  Level FlightAware ADS-B
Thu 02:25:32 PM 45.1390 -66.6370 236° Southwest 421 484 39,000  Level FlightAware ADS-B
Thu 02:26:12 PM 45.1000 -66.7190 236° Southwest 418 481 39,000  Level FlightAware ADS-B
Thu 02:26:57 PM 45.0510 -66.8210 236° Southwest 423 487 39,000  Level FlightAware ADS-B
Thu 02:27:42 PM 45.0000 -66.9250 235° Southwest 419 482 39,000  Level FlightAware ADS-B
Thu 02:28:22 PM 44.9570 -67.0150 236° Southwest 424 488 39,000  Level FlightAware ADS-B
Thu 02:29:02 PM 44.9120 -67.1080 236° Southwest 420 483 39,000  Level FlightAware ADS-B
Thu 02:29:47 PM 44.8660 -67.2140 239° Southwest 426 490 39,000  Level FlightAware ADS-B
Thu 02:30:27 PM 44.8270 -67.3090 240° Southwest 427 491 39,000  Level FlightAware ADS-B
Thu 02:31:07 PM 44.7880 -67.4070 241° Southwest 426 490 39,000  Level FlightAware ADS-B
Thu 02:31:52 PM 44.7440 -67.5140 240° Southwest 426 490 39,000  Level FlightAware ADS-B
Thu 02:32:32 PM 44.7040 -67.6110 240° Southwest 427 491 39,000  Level FlightAware ADS-B
Thu 02:33:12 PM 44.6650 -67.7060 240° Southwest 426 490 39,000  Level FlightAware ADS-B
Thu 02:33:57 PM 44.6090 -67.8010 230° Southwest 423 487 39,000  Level FlightAware ADS-B
Thu 02:34:37 PM 44.5450 -67.8630 215° Southwest 424 488 39,000  Level FlightAware ADS-B
Thu 02:35:22 PM 44.4710 -67.9320 214° Southwest 425 489 39,000  Level FlightAware ADS-B
Thu 02:36:02 PM 44.4050 -67.9930 213° Southwest 427 491 39,000  Level FlightAware ADS-B
Thu 02:36:42 PM 44.3400 -68.0530 213° Southwest 429 494 39,000  Level FlightAware ADS-B
Thu 02:37:27 PM 44.2650 -68.1220 213° Southwest 424 488 39,000  Level FlightAware ADS-B
Thu 02:38:07 PM 44.1980 -68.1840 214° Southwest 426 490 39,000  Level FlightAware ADS-B
Thu 02:38:52 PM 44.1240 -68.2520 213° Southwest 428 493 39,000  Level FlightAware ADS-B
Thu 02:39:32 PM 44.0550 -68.3140 213° Southwest 428 493 39,000  Level FlightAware ADS-B
Thu 02:40:12 PM 43.9970 -68.3670 213° Southwest 428 493 39,000  Level FlightAware ADS-B
Thu 02:40:57 PM 43.9090 -68.4350 209° Southwest 436 502 39,000  Level FlightAware ADS-B
Thu 02:41:37 PM 43.8310 -68.4690 197° South 435 501 39,000  Level FlightAware ADS-B
Thu 02:42:22 PM 43.7400 -68.5090 198° South 436 502 39,000  Level FlightAware ADS-B
Thu 02:42:57 PM 43.6760 -68.5380 198° South 436 502 39,000  Level FlightAware ADS-B
Thu 02:43:47 PM 43.5920 -68.5740 197° South 436 502 39,000  Level FlightAware ADS-B
Thu 02:44:27 PM 43.5270 -68.6010 197° South 436 502 39,000  Level FlightAware ADS-B
Thu 02:45:07 PM 43.4500 -68.6790 216° Southwest 39,000  Level FlightAware ADS-B
Thu 02:46:17 PM 43.3260 -68.7940 214° Southwest 39,000  Level FlightAware ADS-B
Thu 02:47:02 PM 43.2520 -68.8660 215° Southwest 435 501 39,000  Level FlightAware ADS-B
Thu 02:47:42 PM 43.1890 -68.9280 216° Southwest 434 499 39,000  Level FlightAware ADS-B
Thu 02:48:27 PM 43.1130 -69.0020 215° Southwest 434 499 39,000  Level FlightAware ADS-B
Thu 02:49:07 PM 43.0480 -69.0660 216° Southwest 433 498 39,000  Level FlightAware ADS-B
Thu 02:49:52 PM 42.9730 -69.1390 215° Southwest 432 497 39,000  Level FlightAware ADS-B
Thu 02:50:32 PM 42.9090 -69.2000 215° Southwest 432 497 39,000  Level FlightAware ADS-B
Thu 02:51:12 PM 42.8430 -69.2630 215° Southwest 432 497 39,000  Level FlightAware ADS-B
Thu 02:51:57 PM 42.7690 -69.3350 216° Southwest 433 498 39,000  Level FlightAware ADS-B
Thu 02:52:37 PM 42.7040 -69.3960 215° Southwest 432 497 39,000  Level FlightAware ADS-B
Thu 02:53:17 PM 42.6380 -69.4590 215° Southwest 431 496 39,000  Level FlightAware ADS-B
Thu 02:54:02 PM 42.5680 -69.5250 215° Southwest 432 497 39,000  Level FlightAware ADS-B
Thu 02:54:42 PM 42.5010 -69.5890 215° Southwest 432 497 39,000  Level FlightAware ADS-B
Thu 02:55:27 PM 42.4270 -69.6600 215° Southwest 434 499 39,000  Level FlightAware ADS-B
Thu 02:56:07 PM 42.3620 -69.7220 215° Southwest 435 501 39,000  Level FlightAware ADS-B
Thu 02:56:47 PM 42.2980 -69.7830 215° Southwest 435 501 39,000  Level FlightAware ADS-B
Thu 02:57:32 PM 42.2260 -69.8510 215° Southwest 437 503 39,000  Level FlightAware ADS-B
Thu 02:58:12 PM 42.1620 -69.9110 215° Southwest 437 503 39,000  Level FlightAware ADS-B
Thu 02:58:57 PM 42.0810 -69.9880 215° Southwest 432 497 39,000  Level FlightAware ADS-B
Thu 02:59:37 PM 42.0150 -70.0500 215° Southwest 432 497 39,000  Level FlightAware ADS-B
Thu 03:00:22 PM 41.9400 -70.1210 215° Southwest 432 497 39,000  Level FlightAware ADS-B
Thu 03:01:02 PM 41.8750 -70.1820 215° Southwest 433 498 39,000 -240 Level FlightAware ADS-B
Thu 03:01:37 PM 41.8170 -70.2360 215° Southwest 435 501 38,700 -1,125 Descending FlightAware ADS-B
Thu 03:02:22 PM 41.7400 -70.2970 211° Southwest 441 507 37,500 -1,800 Descending FlightAware ADS-B
Thu 03:02:57 PM 41.6840 -70.3160 194° South 441 507 36,300 -800 Descending FlightAware ADS-B
Thu 03:03:52 PM 41.5900 -70.3640 201° Southwest 441 507 36,300 -2,259 Level FlightAware ADS-B
Thu 03:04:22 PM 41.5070 -70.3750 186° South 417 480 33,100 -3,411 Descending FlightAware ADS-B
Thu 03:05:27 PM 41.3840 -70.4190 195° South 417 480 30,900 -1,200 Descending FlightAware ADS-B
Thu 03:06:12 PM 41.3090 -70.4480 196° South 417 480 30,900 -771 Level FlightAware ADS-B
Thu 03:06:37 PM 41.2820 -70.5380 248° West 423 487 30,000 -720 Descending FlightAware ADS-B
Thu 03:07:27 PM 41.2350 -70.6460 240° Southwest 425 489 30,000  Level FlightAware ADS-B
Thu 03:08:17 PM 41.1890 -70.7530 240° Southwest 427 491 30,000  Level FlightAware ADS-B
Thu 03:08:47 PM 41.1570 -70.8250 239° Southwest 424 488 30,000  Level FlightAware ADS-B
Thu 03:09:42 PM 41.1000 -70.9550 240° Southwest 424 488 30,000  Level FlightAware ADS-B
Thu 03:10:22 PM 41.0640 -71.0380 240° Southwest 425 489 30,000  Level FlightAware ADS-B
Thu 03:11:02 PM 41.0230 -71.1330 240° Southwest 425 489 30,000  Level FlightAware ADS-B
Thu 03:11:42 PM 40.9820 -71.2230 239° Southwest 425 489 30,000  Level FlightAware ADS-B
Thu 03:12:22 PM 40.9420 -71.3130 240° Southwest 428 493 30,000  Level FlightAware ADS-B
Thu 03:13:07 PM 40.8950 -71.4180 239° Southwest 433 498 30,000  Level FlightAware ADS-B
Thu 03:13:52 PM 40.8440 -71.5330 240° Southwest 438 504 30,000  Level FlightAware ADS-B
Thu 03:14:27 PM 40.8110 -71.6070 240° Southwest 439 505 30,000  Level FlightAware ADS-B
Thu 03:15:17 PM 40.7580 -71.7240 239° Southwest 435 501 30,000 -467 Level FlightAware ADS-B
Thu 03:15:57 PM 40.7160 -71.8170 239° Southwest 430 495 29,300 -600 Descending FlightAware ADS-B
Thu 03:16:37 PM 40.6810 -71.8940 239° Southwest 430 495 29,200 -1,341 Descending FlightAware ADS-B
Thu 03:17:22 PM 40.6310 -72.0030 239° Southwest 419 482 27,400 -1,906 Descending FlightAware ADS-B
Thu 03:18:02 PM 40.5930 -72.0870 239° Southwest 415 478 26,500 -1,412 Descending FlightAware ADS-B
Thu 03:18:47 PM 40.5450 -72.1910 239° Southwest 413 475 25,400 -1,011 Descending FlightAware ADS-B
Thu 03:19:37 PM 40.4990 -72.2890 238° Southwest 413 475 24,900 -1,200 Descending FlightAware ADS-B
Thu 03:20:22 PM 40.4530 -72.3920 240° Southwest 409 471 23,500 -1,533 Descending FlightAware ADS-B
Thu 03:21:07 PM 40.4100 -72.4840 238° Southwest 403 464 22,600 -1,200 Descending FlightAware ADS-B
Thu 03:21:47 PM 40.3690 -72.5720 239° Southwest 400 460 21,800 -1,129 Descending FlightAware ADS-B
Thu 03:22:32 PM 40.3290 -72.6570 238° Southwest 398 458 21,000 -1,129 Descending FlightAware ADS-B
Thu 03:23:12 PM 40.2890 -72.7430 239° Southwest 390 449 20,200 -750 Descending FlightAware ADS-B
Thu 03:23:52 PM 40.2520 -72.8230 239° Southwest 379 436 20,000 -141 Descending FlightAware ADS-B
Thu 03:24:37 PM 40.2090 -72.9120 238° Southwest 387 445 20,000  Level FlightAware ADS-B
Thu 03:25:17 PM 40.1720 -72.9900 238° Southwest 389 448 20,000  Level FlightAware ADS-B
Thu 03:25:57 PM 40.1330 -73.0710 238° Southwest 388 447 20,000  Level FlightAware ADS-B
Thu 03:26:42 PM 40.0910 -73.1600 238° Southwest 389 448 20,000  Level FlightAware ADS-B
Thu 03:27:22 PM 40.0530 -73.2390 238° Southwest 388 447 20,000  Level FlightAware ADS-B
Thu 03:28:07 PM 40.0090 -73.3300 238° Southwest 388 447 20,000  Level FlightAware ADS-B
Thu 03:28:47 PM 39.9700 -73.4100 238° Southwest 388 447 20,000  Level FlightAware ADS-B
Thu 03:29:12 PM 39.9461 -73.4608 238° Southwest 388 447 20,000  Level FlightAware ADS-B
Thu 03:30:12 PM 39.8880 -73.5740 236° Southwest 388 447 20,000  Level FlightAware ADS-B
Thu 03:30:20 PM 39.8768 -73.5919 231° Southwest 389 448 20,000 -429 Level FlightAware ADS-B
Thu 03:30:54 PM 39.8383 -73.6527 231° Southwest 391 450 19,700 -923 Descending FlightAware ADS-B
Thu 03:31:25 PM 39.8021 -73.7090 230° Southwest 386 444 19,000 -1,364 Descending FlightAware ADS-B
Thu 03:32:00 PM 39.7618 -73.7713 230° Southwest 382 440 18,200 -1,304 Descending FlightAware ADS-B
Thu 03:32:34 PM 39.7241 -73.8295 230° Southwest 381 438 17,500 -1,292 Descending FlightAware ADS-B
Thu 03:33:05 PM 39.6888 -73.8843 230° Southwest 373 429 16,800 -1,313 Descending FlightAware ADS-B
Thu 03:33:38 PM 39.6531 -73.9399 230° Southwest 371 427 16,100 -1,219 Descending FlightAware ADS-B
Thu 03:34:09 PM 39.6186 -73.9935 230° Southwest 370 426 15,500 -1,258 Descending FlightAware ADS-B
Thu 03:34:40 PM 39.5854 -74.0446 230° Southwest 364 419 14,800 -1,279 Descending FlightAware ADS-B
Thu 03:35:10 PM 39.5525 -74.0954 230° Southwest 361 415 14,200 -1,171 Descending FlightAware ADS-B
Thu 03:35:21 PM 39.5413 -74.1129 230° Southwest 356 410 14,000 -750 Descending FlightAware ADS-B
Thu 03:35:26 PM 39.5362 -74.1229 237° Southwest 353 406 14,000  Level FlightAware ADS-B
Thu 03:35:40 PM 39.5271 -74.1488 246° West 351 404 14,000  Level FlightAware ADS-B
Thu 03:36:07 PM 39.5221 -74.2051 263° West 353 406 14,000 -211 Level FlightAware ADS-B
Thu 03:36:37 PM 39.5228 -74.2676 271° West 343 395 13,800 -787 Descending FlightAware ADS-B
Thu 03:37:08 PM 39.5245 -74.3294 272° West 329 379 13,200 -1,099 Descending FlightAware ADS-B
Thu 03:37:48 PM 39.5257 -74.4046 271° West 301 346 12,500 -1,040 Descending FlightAware ADS-B
Thu 03:38:23 PM 39.5261 -74.4657 271° West 283 326 11,900 -892 Descending FlightAware ADS-B
Thu 03:39:02 PM 39.5260 -74.5200 270° West 269 310 11,400 -982 Descending FlightAware ADS-B
Thu 03:39:18 PM 39.5257 -74.5543 269° West 279 321 11,000 -1,149 Descending FlightAware ADS-B
Thu 03:39:49 PM 39.5262 -74.6037 271° West 260 299 10,500 -968 Descending FlightAware ADS-B
Thu 03:40:20 PM 39.5271 -74.6520 271° West 266 306 10,000 -1,043 Descending FlightAware ADS-B
Thu 03:40:35 PM 39.5274 -74.6761 271° West 266 306 9,700 -1,143 Descending FlightAware ADS-B
Thu 03:40:41 PM 39.5276 -74.6856 272° West 263 303 9,600 -1,200 Descending FlightAware ADS-B
Thu 03:40:45 PM 39.5281 -74.6909 277° West 262 302 9,500 -1,091 Descending FlightAware ADS-B
Thu 03:40:52 PM 39.5302 -74.7015 284° West 260 299 9,400 -1,000 Descending FlightAware ADS-B
Thu 03:40:57 PM 39.5331 -74.7087 298° West 261 300 9,300 -750 Descending FlightAware ADS-B
Thu 03:41:00 PM 39.5353 -74.7127 305° West 262 302 9,300 -783 Level FlightAware ADS-B
Thu 03:41:20 PM 39.5522 -74.7354 314° West 265 305 9,000 -474 Descending FlightAware ADS-B
Thu 03:41:38 PM 39.5671 -74.7551 314° West 262 302 9,000 -140 Level FlightAware ADS-B
Thu 03:42:03 PM 39.5884 -74.7838 314° West 263 303 8,900 -439 Descending FlightAware ADS-B
Thu 03:42:19 PM 39.6019 -74.8018 314° West 260 299 8,700 -581 Descending FlightAware ADS-B
Thu 03:42:34 PM 39.6145 -74.8188 314° West 259 298 8,600 -400 Descending FlightAware ADS-B
Thu 03:42:49 PM 39.6270 -74.8353 315° West 257 296 8,500 -581 Descending FlightAware ADS-B
Thu 03:43:05 PM 39.6404 -74.8533 314° West 255 293 8,300 -900 Descending FlightAware ADS-B
Thu 03:43:09 PM 39.6438 -74.8578 314° West 255 293 8,200 -923 Descending FlightAware ADS-B
Thu 03:43:18 PM 39.6512 -74.8665 318° Northwest 254 292 8,100 -960 Descending FlightAware ADS-B
Thu 03:43:34 PM 39.6658 -74.8818 321° Northwest 254 292 7,800 -1,313 Descending FlightAware ADS-B
Thu 03:43:50 PM 39.6811 -74.8957 325° Northwest 254 292 7,400 -1,615 Descending FlightAware ADS-B
Thu 03:44:00 PM 39.6909 -74.9045 325° Northwest 254 292 7,100 -1,680 Descending FlightAware ADS-B
Thu 03:44:15 PM 39.7058 -74.9180 325° Northwest 248 285 6,700 -1,548 Descending FlightAware ADS-B
Thu 03:44:31 PM 39.7199 -74.9307 325° Northwest 236 272 6,300 -1,688 Descending FlightAware ADS-B
Thu 03:44:47 PM 39.7341 -74.9438 325° Northwest 226 260 5,800 -1,615 Descending FlightAware ADS-B
Thu 03:44:57 PM 39.7424 -74.9512 326° Northwest 222 255 5,600 -1,636 Descending FlightAware ADS-B
Thu 03:45:09 PM 39.7523 -74.9601 325° Northwest 213 245 5,200 -2,000 Descending FlightAware ADS-B
Thu 03:45:21 PM 39.7625 -74.9690 326° Northwest 211 243 4,800 -2,077 Descending FlightAware ADS-B
Thu 03:45:35 PM 39.7734 -74.9791 325° Northwest 213 245 4,300 -2,129 Descending FlightAware ADS-B
Thu 03:45:52 PM 39.7865 -74.9911 325° Northwest 207 238 3,700 -1,875 Descending FlightAware ADS-B
Thu 03:46:07 PM 39.7982 -75.0018 325° Northwest 205 236 3,300 -1,600 Descending FlightAware ADS-B
Thu 03:46:22 PM 39.8103 -75.0126 326° Northwest 211 243 2,900 -1,412 Descending FlightAware ADS-B
Thu 03:46:41 PM 39.8260 -75.0260 327° Northwest 214 246 2,500 -1,071 Descending FlightAware ADS-B
Thu 03:46:50 PM 39.8328 -75.0322 325° Northwest 205 236 2,400 -400 Descending FlightAware ADS-B
Thu 03:47:11 PM 39.8488 -75.0464 326° Northwest 203 234 2,300 -333 Descending FlightAware ADS-B
Thu 03:47:26 PM 39.8601 -75.0566 325° Northwest 188 216 2,200 -387 Descending FlightAware ADS-B
Thu 03:47:42 PM 39.8709 -75.0662 326° Northwest 184 212 2,100 -300 Descending FlightAware ADS-B
Thu 03:47:46 PM 39.8740 -75.0693 322° Northwest 183 211 2,100  Level FlightAware ADS-B
Thu 03:47:50 PM 39.8764 -75.0723 316° Northwest 180 207 2,100  Level FlightAware ADS-B
Thu 03:47:54 PM 39.8783 -75.0751 311° West 176 203 2,100  Level FlightAware ADS-B
Thu 03:47:58 PM 39.8804 -75.0787 307° West 174 200 2,100 -750 Level FlightAware ADS-B
Thu 03:48:02 PM 39.8822 -75.0826 301° West 172 198 2,000 -600 Descending FlightAware ADS-B
Thu 03:48:08 PM 39.8840 -75.0875 296° West 169 194 2,000 -462 Level FlightAware ADS-B
Thu 03:48:15 PM 39.8860 -75.0940 292° West 167 192 1,900 -947 Descending FlightAware ADS-B
Thu 03:48:27 PM 39.8877 -75.1061 280° West 157 181 1,700 -900 Descending FlightAware ADS-B
Thu 03:48:35 PM 39.8876 -75.1132 269° West 149 171 1,600 -375 Descending FlightAware ADS-B
Thu 03:48:43 PM 39.8866 -75.1204 260° West 143 165 1,600 -600 Level FlightAware ADS-B
Thu 03:48:55 PM 39.8850 -75.1297 257° West 135 155 1,400 -889 Descending FlightAware ADS-B
Thu 03:49:10 PM 39.8826 -75.1415 255° West 131 151 1,200 -720 Descending FlightAware ADS-B
Thu 03:49:20 PM 39.8812 -75.1487 256° West 131 151 1,100 -600 Descending FlightAware ADS-B

Login

Don't have an account? Register now (free) for customized features, flight alerts, and more!